Manitowish Waters, WI (54545)

11:33 AM CST on November 28, 2014 (GMT -0600)
Manitowish Waters, Manitowish | Change Station
CLOSE
Current Station
Airport
Location: Manitowish Waters, Manitowish,
Elevation: 1608 ft
Nearby Weather Stations

Elev 1608 ft 46.12 °N, 89.88 °W | Updated 18 minutes ago

Snow
Snow
10 °F
Feels Like 0 °F
N
6
Wind Variable Wind from SSE

Today
High -- | Low -- °F
--% Chance of Precip.
Yesterday
High -- | Low -- °F
Precip. -- in
7:17 AM 4:16 PM
Waxing Crescent, 42% visible
Pressure 29.98 in
Visibility 1.8 miles
Clouds Scattered Clouds 700 ft
Mostly Cloudy 1100 ft
Overcast 2300 ft
Windchill 0 °F
Dew Point 8 °F
Humidity 92%
Rainfall 0.00 in
Snow Depth Not available.
UV 1 out of 12
Pollen .10 out of 12
Air Quality Not available.
Flu Activity Not available.
METAR KD25 281715Z AUTO 15005KT 1 3/4SM -SN SCT007 BKN011 OVC023 M12/M13 A2998 RMK AO2 T11221132

More Conditions Fewer Conditions

Pressure 29.98 in
Visibility 1.8 miles
Clouds Scattered Clouds 700 ft
Mostly Cloudy 1100 ft
Overcast 2300 ft
Windchill 0 °F
Dew Point 8 °F
Humidity 92%
Rainfall 0.00 in
Snow Depth Not available.
UV 1 out of 12
Pollen .10 out of 12
Air Quality Not available.
Flu Activity Not available.
METAR KD25 281715Z AUTO 15005KT 1 3/4SM -SN SCT007 BKN011 OVC023 M12/M13 A2998 RMK AO2 T11221132

More Conditions Fewer Conditions

Nowcast | as of 9:56 am CST on November 28, 2014

light snow and cold temperatures expected to result in slippery roads and sidewalks today and tonight... Periods of light snow are expected to continue today and early tonight. Given the cold temperatures across the area...the snow is likely to result in slippery travel conditions despite the modest snow accumulation that is expected. Anyone traveling today should use extra caution...and allow for extra travel time. An area of light snow moved across the area this morning. Somewhat of a lull in the snowfall was occurring during the late morning... with much of the area currently reporting only flurries. The snow should increase some during the afternoon hours...and is expected to linger into the evening. Some freezing drizzle is also possible this afternoon...mainly south and west of a line from Rhinelander to Shawano to Green Bay to Kewaunee. Total snowfall accumulation of only an inch or two is expected at most locations by late evening.

×

10-Day Weather Forecast

Almanac

Astronomy

Nov. 28, 2014 Rise Set
Actual Time
Civil Twilight
Nautical Twilight
Astronomical Twilight
Moon
Length of Visible Light
Length of Day
Tomorrow will be .
, % of the Moon is Illuminated

Today's Extremes

State Highs State Lows

Community

WunderPhotos

Upload Photos

1,774,244 photos uploaded!

WunderBlogs® & News

Nearby

Air Quality

  Air Quality AQ Index Pollutant
Not available.

Snow Depth

Station Depth Elevation

Earthquake Activity

City Distance Mag. Time & Date
Minimum magnitude displayed is 2.5.

Coastal Water Temperatures

Place Temperature

Nearby Weather Stations